Time;durP1;ratioP1;P1;durP2;ratioP2;P2;SDS_P1;SDS_P2;PMS_P1;PMS_P2;Temp;Humidity;BMP_temperature;BMP_pressure;BME280_temperature;BME280_humidity;BME280_pressure;Samples;Min_cycle;Max_cycle;Signal;HPM_P1;HPM_P2
2021/07/28 00:04:21;;;;;;;24.65;21.83;;;29.00;54.70;;;;;;4761755;55;21496;-17
2021/07/28 00:09:22;;;;;;;23.87;20.95;;;29.00;54.70;;;;;;4790834;55;21010;-18
2021/07/28 00:14:23;;;;;;;24.87;22.08;;;29.00;54.80;;;;;;4769367;55;20998;-19
2021/07/28 00:19:27;;;;;;;23.87;21.00;;;29.00;54.80;;;;;;4753059;55;21544;-21
2021/07/28 00:24:31;;;;;;;24.98;21.45;;;29.00;54.80;;;;;;4747738;55;21516;-24
2021/07/28 00:29:35;;;;;;;25.75;22.02;;;29.00;55.00;;;;;;4779035;55;21512;-18
2021/07/28 00:34:36;;;;;;;23.27;20.15;;;29.00;55.00;;;;;;4738318;59;21010;-34
2021/07/28 00:39:37;;;;;;;23.00;20.50;;;29.00;55.00;;;;;;4764101;55;21376;-27
2021/07/28 00:44:38;;;;;;;23.25;19.87;;;29.00;55.00;;;;;;4784536;55;20998;-32
2021/07/28 00:49:39;;;;;;;24.30;19.83;;;29.00;55.00;;;;;;4772781;55;21030;-18
2021/07/28 00:54:40;;;;;;;23.25;20.77;;;29.00;55.00;;;;;;4761043;55;20993;-20
2021/07/28 00:59:41;;;;;;;22.90;20.48;;;29.00;55.00;;;;;;4775575;55;20997;-20
2021/07/28 01:04:41;;;;;;;22.67;19.58;;;29.00;55.40;;;;;;4748610;55;21005;-20
2021/07/28 01:09:42;;;;;;;24.05;20.35;;;29.00;55.10;;;;;;4750847;55;21025;-21
2021/07/28 01:14:44;;;;;;;22.05;19.23;;;29.00;55.10;;;;;;4742482;55;21014;-21
2021/07/28 01:19:51;;;;;;;22.87;19.92;;;29.00;55.20;;;;;;4748851;55;21452;-21
2021/07/28 01:24:52;;;;;;;24.10;20.40;;;29.00;55.20;;;;;;4766430;55;21041;-21
2021/07/28 01:29:53;;;;;;;22.17;19.70;;;29.00;55.20;;;;;;4749267;55;21030;-19
2021/07/28 01:34:54;;;;;;;23.55;20.73;;;29.00;55.20;;;;;;4738880;55;21002;-21
2021/07/28 01:39:54;;;;;;;21.87;19.55;;;29.00;55.30;;;;;;4742837;55;21480;-20
2021/07/28 01:44:55;;;;;;;22.00;19.30;;;29.00;55.30;;;;;;4748271;55;21045;-21
2021/07/28 01:49:56;;;;;;;22.73;19.25;;;29.00;55.30;;;;;;4742842;55;21500;-28
2021/07/28 01:54:57;;;;;;;22.37;18.55;;;29.00;55.30;;;;;;4768210;55;21571;-25
2021/07/28 02:00:00;;;;;;;22.30;19.33;;;29.00;55.40;;;;;;4738022;59;21042;-23
2021/07/28 02:05:03;;;;;;;23.30;19.42;;;29.00;55.40;;;;;;4764037;55;21120;-23
2021/07/28 02:10:07;;;;;;;20.95;18.23;;;29.00;55.50;;;;;;4781399;55;21058;-21
2021/07/28 02:15:09;;;;;;;21.50;18.10;;;29.00;55.50;;;;;;4810303;55;21010;-23
2021/07/28 02:20:11;;;;;;;21.30;18.98;;;29.00;55.50;;;;;;4778784;55;21555;-26
2021/07/28 02:25:13;;;;;;;20.85;18.65;;;29.00;55.50;;;;;;4757011;55;22020;-24
2021/07/28 02:30:16;;;;;;;21.50;19.12;;;29.00;55.50;;;;;;4754533;55;21001;-21
2021/07/28 02:35:17;;;;;;;20.10;17.95;;;29.00;55.50;;;;;;4739019;59;20986;-26
2021/07/28 02:40:20;;;;;;;20.17;17.95;;;29.00;55.50;;;;;;4782217;55;21022;-29
2021/07/28 02:45:21;;;;;;;21.25;17.73;;;29.00;55.50;;;;;;4738803;59;21061;-23
2021/07/28 02:50:22;;;;;;;19.60;17.50;;;29.00;55.70;;;;;;4796279;55;21513;-18
2021/07/28 02:55:22;;;;;;;19.77;17.65;;;29.00;55.70;;;;;;4761422;55;21037;-20
2021/07/28 03:00:23;;;;;;;19.77;17.23;;;28.90;55.60;;;;;;4804240;55;21499;-19
2021/07/28 03:05:25;;;;;;;19.83;17.77;;;28.90;55.60;;;;;;4745383;55;21548;-22
2021/07/28 03:10:26;;;;;;;20.10;16.90;;;29.00;55.60;;;;;;4749493;55;21093;-20
2021/07/28 03:15:27;;;;;;;21.15;16.92;;;29.00;55.60;;;;;;4751237;55;21013;-21
2021/07/28 03:20:29;;;;;;;19.35;16.65;;;28.90;55.60;;;;;;4750624;55;21006;-25
2021/07/28 03:25:30;;;;;;;18.08;16.17;;;28.90;55.60;;;;;;4783111;55;20997;-20
2021/07/28 03:30:30;;;;;;;20.73;16.73;;;28.90;55.70;;;;;;4764482;55;21009;-32
2021/07/28 03:35:31;;;;;;;20.95;16.77;;;28.90;55.70;;;;;;4749240;55;21069;-21
2021/07/28 03:40:32;;;;;;;18.85;16.70;;;28.90;55.70;;;;;;4740992;55;21536;-18
2021/07/28 03:45:33;;;;;;;20.15;16.17;;;28.90;55.70;;;;;;4810325;55;21077;-22
2021/07/28 03:50:34;;;;;;;21.05;16.42;;;28.90;55.70;;;;;;4783667;55;21025;-23
2021/07/28 03:55:35;;;;;;;18.50;15.77;;;28.90;55.80;;;;;;4767030;55;21022;-21
2021/07/28 04:00:36;;;;;;;16.83;14.93;;;28.90;55.80;;;;;;4737919;59;21002;-22
2021/07/28 04:05:37;;;;;;;18.15;15.15;;;28.90;55.80;;;;;;4747732;55;21001;-30
2021/07/28 04:10:38;;;;;;;18.62;15.70;;;28.90;55.90;;;;;;4737622;59;21013;-19
2021/07/28 04:15:38;;;;;;;19.12;16.42;;;28.90;55.90;;;;;;4774196;55;21014;-27
2021/07/28 04:20:39;;;;;;;20.35;16.15;;;28.80;55.80;;;;;;4749370;55;21010;-28
2021/07/28 04:25:40;;;;;;;17.08;14.68;;;28.80;55.80;;;;;;4746291;55;21511;-18
2021/07/28 04:30:41;;;;;;;20.05;14.63;;;28.80;55.90;;;;;;4755778;55;21520;-24
2021/07/28 04:35:42;;;;;;;16.02;14.35;;;28.80;55.90;;;;;;4744772;55;21073;-21
2021/07/28 04:40:43;;;;;;;17.98;14.23;;;28.80;55.80;;;;;;4784843;55;20998;-30
2021/07/28 04:45:44;;;;;;;17.90;14.98;;;28.80;55.80;;;;;;4749674;55;21157;-21
2021/07/28 04:50:45;;;;;;;19.12;13.70;;;28.80;55.80;;;;;;4754118;55;21077;-27
2021/07/28 04:55:55;;;;;;;17.70;15.65;;;28.80;55.80;;;;;;4751065;55;21074;-19
2021/07/28 05:00:59;;;;;;;17.50;14.15;;;28.80;55.80;;;;;;4739383;59;21034;-18
2021/07/28 05:05:59;;;;;;;17.27;14.38;;;28.80;55.80;;;;;;4761891;55;21069;-22
2021/07/28 05:11:00;;;;;;;16.52;14.00;;;28.80;55.80;;;;;;4748976;55;21006;-23
2021/07/28 05:16:05;;;;;;;18.60;13.90;;;28.80;55.90;;;;;;4738471;59;21011;-18
2021/07/28 05:21:06;;;;;;;15.82;13.35;;;28.80;56.00;;;;;;4756137;55;20997;-19
2021/07/28 05:26:07;;;;;;;18.33;14.20;;;28.80;55.80;;;;;;4738497;59;21547;-27
2021/07/28 05:31:08;;;;;;;18.55;14.55;;;28.80;55.80;;;;;;4777419;55;21073;-21
2021/07/28 05:36:09;;;;;;;17.25;14.40;;;28.80;55.80;;;;;;4743999;55;21034;-26
2021/07/28 05:41:10;;;;;;;16.65;13.68;;;28.80;55.90;;;;;;4822743;55;21050;-28
2021/07/28 05:46:11;;;;;;;16.45;14.23;;;28.80;55.90;;;;;;4738424;59;21010;-22
2021/07/28 05:51:12;;;;;;;18.87;13.88;;;28.80;55.90;;;;;;4778665;55;21623;-26
2021/07/28 05:56:12;;;;;;;17.23;13.75;;;28.80;55.90;;;;;;4755136;55;21018;-20
2021/07/28 06:01:13;;;;;;;17.85;14.40;;;28.80;55.90;;;;;;4755134;55;21045;-22
2021/07/28 06:06:14;;;;;;;19.48;13.80;;;28.80;55.90;;;;;;4747828;55;21065;-19
2021/07/28 06:11:15;;;;;;;17.73;14.40;;;28.80;55.90;;;;;;4748995;55;22203;-25
2021/07/28 06:16:16;;;;;;;15.27;13.40;;;28.80;55.90;;;;;;4749476;55;21014;-22
2021/07/28 06:21:16;;;;;;;15.25;13.52;;;28.80;56.00;;;;;;4797021;55;21508;-25
2021/07/28 06:26:17;;;;;;;15.57;12.93;;;28.80;56.00;;;;;;4738461;55;20986;-28
2021/07/28 06:31:18;;;;;;;15.77;13.25;;;28.80;56.00;;;;;;4737703;59;21013;-20
2021/07/28 06:36:19;;;;;;;18.62;14.48;;;28.80;56.10;;;;;;4759357;55;21082;-26
2021/07/28 06:41:20;;;;;;;16.90;13.23;;;28.80;56.00;;;;;;4737470;59;21472;-20
2021/07/28 06:46:20;;;;;;;19.15;14.57;;;28.80;56.10;;;;;;4737636;55;21022;-18
2021/07/28 06:51:21;;;;;;;16.42;13.65;;;28.80;56.00;;;;;;4749151;55;21045;-20
2021/07/28 06:56:22;;;;;;;15.75;12.93;;;28.80;56.10;;;;;;4739762;55;21543;-18
2021/07/28 07:01:24;;;;;;;17.12;13.98;;;28.80;56.60;;;;;;4753275;55;21017;-17
2021/07/28 07:06:25;;;;;;;14.52;12.85;;;28.80;56.10;;;;;;4738583;59;21091;-19
2021/07/28 07:11:26;;;;;;;19.75;14.35;;;28.80;56.10;;;;;;4751895;55;21097;-22
2021/07/28 07:16:27;;;;;;;22.83;15.80;;;28.80;56.80;;;;;;4786360;55;21006;-17
2021/07/28 07:21:28;;;;;;;28.30;17.67;;;28.80;57.30;;;;;;4760871;55;21053;-18
2021/07/28 07:26:28;;;;;;;29.15;18.40;;;28.90;57.60;;;;;;4761595;55;21115;-26
2021/07/28 07:31:29;;;;;;;34.45;20.67;;;28.90;57.70;;;;;;4761174;55;21026;-22
2021/07/28 07:36:30;;;;;;;32.53;24.17;;;28.90;57.80;;;;;;4752261;55;21049;-23
2021/07/28 07:41:32;;;;;;;37.55;25.60;;;28.90;58.00;;;;;;4770581;55;21018;-22
2021/07/28 07:46:33;;;;;;;37.33;26.77;;;29.00;58.40;;;;;;4738226;59;21117;-20
2021/07/28 07:51:34;;;;;;;37.08;26.92;;;29.00;58.20;;;;;;4739350;55;21089;-19
2021/07/28 07:56:35;;;;;;;43.25;26.98;;;29.00;58.10;;;;;;4754065;55;21468;-19
2021/07/28 08:01:39;;;;;;;35.38;26.70;;;29.00;58.00;;;;;;4738767;59;21038;-26
2021/07/28 08:06:39;;;;;;;36.60;27.33;;;29.00;57.90;;;;;;4778354;55;20982;-30
2021/07/28 08:11:40;;;;;;;49.10;37.33;;;29.10;57.80;;;;;;4783282;55;21026;-23
2021/07/28 08:16:41;;;;;;;63.35;47.08;;;29.10;57.90;;;;;;4759592;55;21481;-24
2021/07/28 08:21:42;;;;;;;61.25;49.63;;;29.10;58.30;;;;;;4760081;55;21548;-21
2021/07/28 08:26:43;;;;;;;59.08;46.42;;;29.20;58.50;;;;;;4759938;55;21028;-19
2021/07/28 08:31:44;;;;;;;58.92;44.45;;;29.20;58.80;;;;;;4766435;55;21175;-23
2021/07/28 08:36:45;;;;;;;64.07;44.90;;;29.20;58.90;;;;;;4739209;55;21006;-20
2021/07/28 08:41:50;;;;;;;59.85;43.72;;;29.20;58.80;;;;;;4748378;55;22293;-26
2021/07/28 08:46:53;;;;;;;56.30;42.20;;;29.30;58.80;;;;;;4772446;55;21086;-31
2021/07/28 08:51:55;;;;;;;62.35;46.63;;;29.30;59.90;;;;;;4744368;55;21472;-26
2021/07/28 08:56:58;;;;;;;56.67;43.33;;;29.40;59.80;;;;;;4740001;55;21127;-23
2021/07/28 09:02:01;;;;;;;54.75;42.60;;;29.40;60.60;;;;;;4752141;55;22185;-27
2021/07/28 09:07:15;;;;;;;54.90;41.40;;;29.40;60.70;;;;;;4740886;55;20978;-22
2021/07/28 09:12:17;;;;;;;54.78;39.55;;;29.50;60.60;;;;;;4768604;55;21050;-22
2021/07/28 09:17:20;;;;;;;45.63;33.92;;;29.50;60.40;;;;;;4746634;55;21042;-27
2021/07/28 09:22:22;;;;;;;42.55;31.95;;;29.50;58.90;;;;;;4756691;55;21658;-27
2021/07/28 09:27:46;;;;;;;38.22;26.92;;;29.60;59.20;;;;;;4741376;55;21054;-30
2021/07/28 09:33:02;;;;;;;38.25;27.48;;;29.60;57.90;;;;;;4771863;55;21085;-22
2021/07/28 09:38:04;;;;;;;36.22;27.75;;;29.70;57.70;;;;;;4802343;55;21022;-20
2021/07/28 09:43:08;;;;;;;43.55;25.15;;;29.80;57.70;;;;;;4739204;55;20998;-23
2021/07/28 09:48:08;;;;;;;45.45;24.12;;;29.80;56.10;;;;;;4747957;55;21620;-23
2021/07/28 09:53:09;;;;;;;41.60;28.20;;;29.80;54.40;;;;;;4746919;55;21082;-26
2021/07/28 09:58:10;;;;;;;40.95;28.00;;;29.80;53.00;;;;;;4739651;55;21018;-19
2021/07/28 10:03:11;;;;;;;40.45;26.58;;;29.90;51.80;;;;;;4754583;55;21026;-27
2021/07/28 10:08:14;;;;;;;40.78;30.73;;;30.00;51.20;;;;;;4737102;55;21038;-23
2021/07/28 10:13:16;;;;;;;44.83;30.98;;;30.10;50.60;;;;;;4736142;59;21092;-23
2021/07/28 10:18:17;;;;;;;52.00;31.65;;;30.10;50.20;;;;;;4819022;55;21050;-23
2021/07/28 10:23:18;;;;;;;54.90;31.12;;;30.10;50.60;;;;;;4748834;55;21030;-28
2021/07/28 10:28:19;;;;;;;42.85;32.70;;;30.20;51.00;;;;;;4749942;55;21082;-22
2021/07/28 10:33:27;;;;;;;45.78;31.85;;;30.20;50.00;;;;;;4746562;55;21186;-28
2021/07/28 10:38:29;;;;;;;44.50;31.52;;;30.20;49.60;;;;;;4739886;55;21037;-22
2021/07/28 10:44:06;;;;;;;40.20;27.92;;;30.30;48.70;;;;;;4739116;55;21013;-28
2021/07/28 10:49:07;;;;;;;36.47;25.62;;;30.30;49.00;;;;;;4756370;55;21150;-25
2021/07/28 10:54:08;;;;;;;37.50;27.25;;;30.40;48.20;;;;;;4736849;55;21073;-26
2021/07/28 10:59:40;;;;;;;43.35;32.00;;;30.40;48.60;;;;;;4751849;55;21465;-28
2021/07/28 11:04:41;;;;;;;46.45;33.17;;;30.40;48.10;;;;;;4784131;55;21111;-25
2021/07/28 11:09:42;;;;;;;40.05;31.08;;;30.40;47.50;;;;;;4739613;55;21692;-25
2021/07/28 11:14:44;;;;;;;39.80;26.02;;;30.50;47.50;;;;;;4777236;55;21607;-26
2021/07/28 11:19:46;;;;;;;39.03;27.52;;;30.50;48.20;;;;;;4756384;55;21623;-27
2021/07/28 11:24:58;;;;;;;40.10;26.73;;;30.50;47.50;;;;;;4843783;55;21559;-30
2021/07/28 11:30:12;;;;;;;37.17;27.15;;;30.40;48.20;;;;;;4762040;55;21010;-31
2021/07/28 11:41:10;;;;;;;36.88;27.02;;;30.20;49.00;;;;;;4733637;55;22240;-21
2021/07/28 11:46:21;;;;;;;39.72;26.02;;;30.20;49.40;;;;;;4754363;55;21125;-26
2021/07/28 11:51:31;;;;;;;35.90;26.40;;;30.20;49.70;;;;;;4736727;59;21595;-30
2021/07/28 11:56:32;;;;;;;31.55;21.62;;;30.10;49.90;;;;;;4752124;55;21524;-27
2021/07/28 12:01:34;;;;;;;30.83;23.48;;;30.20;48.00;;;;;;4737734;59;21145;-30
2021/07/28 12:06:40;;;;;;;36.20;24.65;;;30.30;46.80;;;;;;4741427;55;21429;-31
2021/07/28 12:12:01;;;;;;;36.17;26.05;;;30.40;46.80;;;;;;4742577;55;21025;-25
2021/07/28 12:18:39;;;;;;;43.13;25.12;;;30.50;45.50;;;;;;4738710;55;21179;-20
2021/07/28 12:23:58;;;;;;;36.03;24.10;;;30.60;44.90;;;;;;4760600;55;21571;-27
2021/07/28 12:28:59;;;;;;;39.03;25.60;;;30.60;44.90;;;;;;4739095;55;21396;-30
2021/07/28 12:34:38;;;;;;;41.15;26.52;;;30.70;44.70;;;;;;4752585;55;21061;-23
2021/07/28 12:39:38;;;;;;;56.85;33.30;;;30.80;43.20;;;;;;4749996;55;21054;-29
2021/07/28 12:44:39;;;;;;;57.58;38.65;;;30.80;43.10;;;;;;4745555;55;21025;-33
2021/07/28 12:49:41;;;;;;;53.55;36.28;;;30.90;43.10;;;;;;4789439;55;21520;-33
2021/07/28 12:54:42;;;;;;;49.58;34.25;;;30.80;43.00;;;;;;4756270;55;21093;-34
2021/07/28 12:59:43;;;;;;;46.35;32.90;;;31.00;42.80;;;;;;4754197;55;21026;-26
2021/07/28 13:04:43;;;;;;;49.33;30.62;;;31.00;42.70;;;;;;4743620;55;21045;-27
2021/07/28 13:09:44;;;;;;;35.20;23.00;;;31.00;42.00;;;;;;4736960;55;21037;-29
2021/07/28 13:14:45;;;;;;;27.80;20.10;;;31.00;41.50;;;;;;4737574;59;21480;-25
2021/07/28 13:19:46;;;;;;;31.52;20.12;;;31.10;41.30;;;;;;4769962;55;21445;-31
2021/07/28 13:24:47;;;;;;;34.28;21.02;;;31.10;41.20;;;;;;4737400;59;21017;-27
2021/07/28 13:29:47;;;;;;;27.90;20.37;;;31.10;41.90;;;;;;4737118;59;21078;-26
2021/07/28 13:34:48;;;;;;;32.50;21.12;;;31.00;42.50;;;;;;4748138;55;21001;-27
2021/07/28 13:39:49;;;;;;;33.60;19.55;;;30.90;42.80;;;;;;4739949;55;21010;-27
2021/07/28 13:44:50;;;;;;;30.00;15.85;;;30.80;41.80;;;;;;4782831;55;21575;-30
2021/07/28 13:49:53;;;;;;;31.85;16.62;;;30.90;40.40;;;;;;4735492;59;21021;-22
2021/07/28 13:54:54;;;;;;;33.20;23.40;;;31.00;39.80;;;;;;4737937;55;21038;-29
2021/07/28 13:59:55;;;;;;;36.42;22.75;;;31.00;40.10;;;;;;4754922;55;21432;-23
2021/07/28 14:04:56;;;;;;;34.63;20.17;;;31.10;40.10;;;;;;4745850;55;20986;-28
2021/07/28 14:09:57;;;;;;;31.73;19.55;;;31.10;39.90;;;;;;4761780;55;21041;-27
2021/07/28 14:15:01;;;;;;;33.67;22.75;;;31.10;40.10;;;;;;4754683;55;21026;-32
2021/07/28 14:20:04;;;;;;;47.30;27.10;;;31.10;40.10;;;;;;4766592;55;21544;-23
2021/07/28 14:25:07;;;;;;;42.15;28.77;;;31.20;40.00;;;;;;4754483;55;21480;-32
2021/07/28 14:30:08;;;;;;;43.92;27.73;;;31.20;39.90;;;;;;4758303;55;20997;-21
2021/07/28 14:35:09;;;;;;;39.60;26.05;;;31.20;39.50;;;;;;4769247;55;21002;-30
2021/07/28 14:40:13;;;;;;;38.10;22.23;;;31.20;39.40;;;;;;4743915;55;21025;-26
2021/07/28 14:45:14;;;;;;;40.72;22.10;;;31.20;39.50;;;;;;4763467;55;21476;-23
2021/07/28 14:50:15;;;;;;;29.67;21.52;;;31.30;39.80;;;;;;4736678;55;21034;-24
2021/07/28 14:55:16;;;;;;;39.17;22.62;;;31.20;40.30;;;;;;4756670;55;21013;-22
2021/07/28 15:00:18;;;;;;;35.60;22.23;;;31.10;41.00;;;;;;4765974;55;21013;-22
2021/07/28 15:05:19;;;;;;;34.53;21.95;;;31.00;41.50;;;;;;4754353;55;20987;-26
2021/07/28 15:10:20;;;;;;;37.08;22.87;;;30.80;41.90;;;;;;4737687;55;21033;-28
2021/07/28 15:15:21;;;;;;;28.33;21.73;;;30.80;42.20;;;;;;4737783;59;21065;-23
2021/07/28 15:20:22;;;;;;;31.45;20.60;;;30.70;42.60;;;;;;4755155;55;21034;-26
2021/07/28 15:25:23;;;;;;;33.53;21.33;;;30.60;42.80;;;;;;4742824;55;21028;-34
2021/07/28 15:30:24;;;;;;;30.45;21.27;;;30.60;43.10;;;;;;4739797;55;21009;-25
2021/07/28 15:35:25;;;;;;;32.70;21.20;;;30.50;43.40;;;;;;4762130;55;21105;-22
2021/07/28 15:40:27;;;;;;;29.85;21.10;;;30.50;43.70;;;;;;4772173;55;21009;-30
2021/07/28 15:45:28;;;;;;;30.85;21.25;;;30.50;44.00;;;;;;4745734;55;21488;-21
2021/07/28 15:50:30;;;;;;;32.25;20.50;;;30.40;44.20;;;;;;4762340;55;21030;-27
2021/07/28 15:55:30;;;;;;;32.63;21.33;;;30.40;44.50;;;;;;4744781;55;21473;-25
2021/07/28 16:00:31;;;;;;;29.70;20.70;;;30.30;44.60;;;;;;4738308;55;21042;-25
2021/07/28 16:05:32;;;;;;;29.60;21.35;;;30.30;44.90;;;;;;4767764;55;21033;-25
2021/07/28 16:10:33;;;;;;;29.52;22.45;;;30.30;45.00;;;;;;4740624;55;21543;-34
2021/07/28 16:15:37;;;;;;;28.02;20.73;;;30.30;45.90;;;;;;4737994;59;21085;-22
2021/07/28 16:20:40;;;;;;;26.25;20.45;;;30.20;45.50;;;;;;4740066;55;21021;-29
2021/07/28 16:25:44;;;;;;;29.30;20.55;;;30.20;45.60;;;;;;4745192;55;20966;-26
2021/07/28 16:30:46;;;;;;;26.85;19.90;;;30.20;45.80;;;;;;4737829;59;21602;-27
2021/07/28 16:35:50;;;;;;;27.20;20.50;;;30.20;46.00;;;;;;4767958;55;21010;-21
2021/07/28 16:40:51;;;;;;;27.15;19.95;;;30.10;46.20;;;;;;4738195;59;21485;-22
2021/07/28 16:45:52;;;;;;;28.25;20.58;;;30.20;46.40;;;;;;4780257;55;21658;-23
2021/07/28 16:50:54;;;;;;;26.02;20.12;;;30.10;46.50;;;;;;4741287;55;21018;-23
2021/07/28 16:55:56;;;;;;;27.90;20.33;;;30.20;46.80;;;;;;4738144;59;21522;-20
2021/07/28 17:00:57;;;;;;;25.65;19.73;;;30.10;46.90;;;;;;4737828;59;21053;-21
2021/07/28 17:05:57;;;;;;;25.17;19.40;;;30.10;47.00;;;;;;4739749;55;21066;-20
2021/07/28 17:10:58;;;;;;;26.23;19.85;;;30.10;47.20;;;;;;4785056;55;21066;-23
2021/07/28 17:15:59;;;;;;;23.67;19.25;;;30.10;47.30;;;;;;4738313;59;20998;-21
2021/07/28 17:21:00;;;;;;;27.10;20.25;;;30.10;47.50;;;;;;4761916;55;21127;-22
2021/07/28 17:26:04;;;;;;;23.77;19.05;;;30.10;47.60;;;;;;4738341;55;20998;-22
2021/07/28 17:31:05;;;;;;;24.33;19.42;;;30.10;47.70;;;;;;4762800;55;21006;-22
2021/07/28 17:36:07;;;;;;;23.17;19.48;;;30.10;47.90;;;;;;4756467;55;21508;-20
2021/07/28 17:41:09;;;;;;;22.62;18.55;;;30.00;48.00;;;;;;4749501;55;22223;-23
2021/07/28 17:46:11;;;;;;;24.10;19.20;;;30.00;48.10;;;;;;4750631;55;21129;-21
2021/07/28 17:51:13;;;;;;;22.23;18.83;;;30.00;48.20;;;;;;4752445;55;21002;-26
2021/07/28 17:56:14;;;;;;;23.77;19.00;;;30.00;48.40;;;;;;4751266;55;21011;-24
2021/07/28 18:01:15;;;;;;;22.90;18.70;;;30.00;48.50;;;;;;4763967;55;21018;-29
2021/07/28 18:06:59;;;;;;;27.73;19.90;;;30.00;48.60;;;;;;4737867;59;21001;-26
2021/07/28 18:11:59;;;;;;;23.50;19.15;;;30.00;48.70;;;;;;4760514;55;21472;-22
2021/07/28 18:17:02;;;;;;;22.55;18.65;;;30.00;48.90;;;;;;4761370;55;21045;-20
2021/07/28 18:22:04;;;;;;;23.30;19.75;;;30.00;49.00;;;;;;4737745;59;21544;-22
2021/07/28 18:27:05;;;;;;;26.08;19.95;;;30.00;49.00;;;;;;4761785;55;20986;-22
2021/07/28 18:32:06;;;;;;;23.35;19.42;;;30.00;49.20;;;;;;4743789;55;21077;-29
2021/07/28 18:37:07;;;;;;;23.40;19.08;;;30.00;49.30;;;;;;4756695;55;21521;-27
2021/07/28 18:42:08;;;;;;;23.45;18.80;;;30.00;49.40;;;;;;4737593;59;21021;-30
2021/07/28 18:47:09;;;;;;;24.48;20.05;;;30.00;49.50;;;;;;4741924;55;21026;-32
2021/07/28 18:52:10;;;;;;;22.75;18.50;;;30.00;49.50;;;;;;4736867;59;20998;-24
2021/07/28 18:57:11;;;;;;;23.27;19.62;;;29.90;49.60;;;;;;4750454;55;21559;-29
2021/07/28 19:02:12;;;;;;;21.75;18.08;;;30.00;49.80;;;;;;4750348;55;21054;-26
2021/07/28 19:07:14;;;;;;;21.83;18.20;;;29.90;49.80;;;;;;4759049;55;21465;-25
2021/07/28 19:12:15;;;;;;;20.77;18.05;;;29.90;49.90;;;;;;4793755;55;21465;-29
2021/07/28 19:17:16;;;;;;;23.25;19.20;;;29.90;50.00;;;;;;4737822;55;20998;-25
2021/07/28 19:22:20;;;;;;;21.52;18.60;;;29.90;50.00;;;;;;4738308;59;21159;-21
2021/07/28 19:27:24;;;;;;;21.80;18.40;;;29.90;50.20;;;;;;4745933;55;21596;-25
2021/07/28 19:32:25;;;;;;;24.08;17.65;;;29.90;50.30;;;;;;4778184;55;20998;-32
2021/07/28 19:37:25;;;;;;;24.70;19.12;;;29.90;50.30;;;;;;4800709;55;21006;-29
2021/07/28 19:42:28;;;;;;;24.30;19.15;;;29.90;50.30;;;;;;4741662;55;21009;-32
2021/07/28 19:47:29;;;;;;;20.48;18.25;;;29.90;51.10;;;;;;4737475;55;21517;-28
2021/07/28 19:52:30;;;;;;;21.15;18.42;;;29.90;50.50;;;;;;4737214;59;21018;-30
2021/07/28 19:57:31;;;;;;;21.17;18.52;;;29.90;50.50;;;;;;4746546;55;21564;-24
2021/07/28 20:02:32;;;;;;;20.98;18.30;;;29.90;50.60;;;;;;4738551;55;20994;-24
2021/07/28 20:07:33;;;;;;;21.52;18.48;;;29.90;50.60;;;;;;4772976;55;21053;-26
2021/07/28 20:12:43;;;;;;;19.67;17.62;;;29.90;50.70;;;;;;4781881;55;21038;-28
2021/07/28 20:17:44;;;;;;;20.45;18.33;;;29.90;50.80;;;;;;4765590;55;21057;-25
2021/07/28 20:22:45;;;;;;;21.77;18.27;;;29.90;50.90;;;;;;4758855;55;21073;-25
2021/07/28 20:27:47;;;;;;;19.77;17.48;;;29.90;50.90;;;;;;4742396;55;20994;-23
2021/07/28 20:32:50;;;;;;;19.90;17.33;;;29.90;50.90;;;;;;4737338;59;21078;-30
2021/07/28 20:37:51;;;;;;;20.25;17.45;;;29.90;51.00;;;;;;4740929;55;22310;-28
2021/07/28 20:42:52;;;;;;;21.83;19.02;;;29.90;51.20;;;;;;4746187;55;21046;-25
2021/07/28 20:47:53;;;;;;;20.85;17.58;;;29.90;51.20;;;;;;4762032;55;22098;-33
2021/07/28 20:52:55;;;;;;;21.45;17.90;;;29.90;51.30;;;;;;4759970;55;21224;-28
2021/07/28 20:57:55;;;;;;;23.08;18.67;;;29.90;51.30;;;;;;4743965;55;22174;-28
2021/07/28 21:02:56;;;;;;;20.02;17.50;;;29.90;51.30;;;;;;4745155;55;21106;-30
2021/07/28 21:07:58;;;;;;;20.12;17.92;;;29.90;51.40;;;;;;4754612;55;20986;-25
2021/07/28 21:13:03;;;;;;;20.37;17.35;;;29.90;51.50;;;;;;4766946;55;21129;-21
2021/07/28 21:18:04;;;;;;;19.87;17.12;;;29.90;51.50;;;;;;4779982;55;21468;-24
2021/07/28 21:23:05;;;;;;;19.70;17.60;;;29.80;51.60;;;;;;4765730;55;21053;-24
2021/07/28 21:28:06;;;;;;;20.17;17.98;;;29.80;51.60;;;;;;4738257;55;21037;-23
2021/07/28 21:33:07;;;;;;;21.85;17.52;;;29.80;51.60;;;;;;4785121;55;21001;-28
2021/07/28 21:38:08;;;;;;;21.27;17.80;;;29.80;51.70;;;;;;4795872;55;21045;-24
2021/07/28 21:43:11;;;;;;;21.70;18.27;;;29.80;51.70;;;;;;4775455;55;20993;-24
2021/07/28 21:48:12;;;;;;;19.05;16.62;;;29.80;51.80;;;;;;4747668;55;21625;-24
2021/07/28 21:54:00;;;;;;;20.25;17.20;;;29.80;51.80;;;;;;4760351;55;21496;-22
2021/07/28 21:59:56;;;;;;;19.48;17.37;;;29.80;51.80;;;;;;4752087;55;21014;-26
2021/07/28 22:05:00;;;;;;;20.83;18.15;;;29.80;51.90;;;;;;4761735;55;21057;-21
2021/07/28 22:10:02;;;;;;;19.90;17.37;;;29.80;51.90;;;;;;4750201;55;21081;-24
2021/07/28 22:15:03;;;;;;;20.50;18.00;;;29.80;52.00;;;;;;4746998;55;21034;-20
2021/07/28 22:20:05;;;;;;;19.37;17.37;;;29.80;52.00;;;;;;4738998;59;21025;-23
2021/07/28 22:25:06;;;;;;;19.05;16.87;;;29.80;52.00;;;;;;4793615;55;21129;-22
2021/07/28 22:30:08;;;;;;;20.35;16.90;;;29.80;52.00;;;;;;4774636;55;21603;-23
2021/07/28 22:35:12;;;;;;;19.37;17.37;;;29.80;52.70;;;;;;4754999;55;21062;-23
2021/07/28 22:40:13;;;;;;;19.08;17.05;;;29.80;52.10;;;;;;4785028;55;20979;-24
2021/07/28 22:45:13;;;;;;;18.87;16.62;;;29.80;52.10;;;;;;4749643;55;21146;-21
2021/07/28 22:55:34;;;;;;;19.75;16.87;;;29.80;52.20;;;;;;4737885;55;21085;-27
2021/07/28 23:07:10;;;;;;;17.90;16.10;;;29.80;52.30;;;;;;4796882;55;21153;-22
2021/07/28 23:12:11;;;;;;;17.40;15.70;;;29.80;52.30;;;;;;4766620;55;21615;-22
2021/07/28 23:17:12;;;;;;;18.35;16.45;;;29.80;52.40;;;;;;4800716;55;21081;-23
2021/07/28 23:22:13;;;;;;;18.33;16.42;;;29.80;52.40;;;;;;4738023;59;21018;-23
2021/07/28 23:27:14;;;;;;;18.95;16.62;;;29.80;52.40;;;;;;4749844;55;21502;-30
2021/07/28 23:32:15;;;;;;;19.23;17.08;;;29.80;52.40;;;;;;4748617;55;21045;-23
2021/07/28 23:37:15;;;;;;;19.23;17.23;;;29.80;52.50;;;;;;4747564;55;21005;-22
2021/07/28 23:42:16;;;;;;;18.42;16.42;;;29.80;52.60;;;;;;4737756;59;21456;-22
2021/07/28 23:47:18;;;;;;;19.00;16.62;;;29.80;52.50;;;;;;4756240;55;21089;-23
2021/07/28 23:52:20;;;;;;;18.90;16.90;;;29.80;52.60;;;;;;4745817;55;21575;-21
2021/07/28 23:57:22;;;;;;;18.23;16.33;;;29.80;52.60;;;;;;4758348;55;21013;-22
